sensor_id;sensor_type;location;lat;lon;timestamp;pressure;altitude;pressure_sealevel;temperature;humidity
33414;BME280;60055;41.884;12.534;2023-10-19T00:01:20;100398.97;;;19.80;67.61
33414;BME280;60055;41.884;12.534;2023-10-19T00:03:51;100401.31;;;19.73;66.82
33414;BME280;60055;41.884;12.534;2023-10-19T00:06:18;100396.28;;;19.91;66.21
33414;BME280;60055;41.884;12.534;2023-10-19T00:08:44;100406.53;;;19.97;65.97
33414;BME280;60055;41.884;12.534;2023-10-19T00:11:10;100412.13;;;19.83;67.20
33414;BME280;60055;41.884;12.534;2023-10-19T00:13:46;100421.88;;;19.95;65.91
33414;BME280;60055;41.884;12.534;2023-10-19T00:16:14;100413.22;;;19.92;66.55
33414;BME280;60055;41.884;12.534;2023-10-19T00:18:46;100428.19;;;19.94;66.94
33414;BME280;60055;41.884;12.534;2023-10-19T00:21:15;100414.31;;;20.00;66.45
33414;BME280;60055;41.884;12.534;2023-10-19T00:23:54;100437.84;;;19.97;67.56
33414;BME280;60055;41.884;12.534;2023-10-19T00:26:24;100460.59;;;19.91;67.97
33414;BME280;60055;41.884;12.534;2023-10-19T00:28:52;100484.47;;;19.94;66.62
33414;BME280;60055;41.884;12.534;2023-10-19T00:31:21;100485.34;;;19.83;66.42
33414;BME280;60055;41.884;12.534;2023-10-19T00:33:47;100474.75;;;19.93;66.03
33414;BME280;60055;41.884;12.534;2023-10-19T00:36:12;100462.94;;;19.96;65.88
33414;BME280;60055;41.884;12.534;2023-10-19T00:38:41;100457.47;;;19.97;65.72
33414;BME280;60055;41.884;12.534;2023-10-19T00:41:22;100479.75;;;20.09;65.07
33414;BME280;60055;41.884;12.534;2023-10-19T00:43:52;100518.84;;;20.11;65.46
33414;BME280;60055;41.884;12.534;2023-10-19T00:46:36;100553.59;;;20.13;65.41
33414;BME280;60055;41.884;12.534;2023-10-19T00:49:09;100541.53;;;20.18;65.35
33414;BME280;60055;41.884;12.534;2023-10-19T00:51:43;100482.78;;;20.04;65.57
33414;BME280;60055;41.884;12.534;2023-10-19T00:54:32;100422.25;;;19.91;66.19
33414;BME280;60055;41.884;12.534;2023-10-19T00:57:04;100442.09;;;19.88;66.14
33414;BME280;60055;41.884;12.534;2023-10-19T00:59:40;100448.66;;;19.95;66.21
33414;BME280;60055;41.884;12.534;2023-10-19T01:02:13;100440.16;;;19.90;66.22
33414;BME280;60055;41.884;12.534;2023-10-19T01:04:47;100434.03;;;19.88;66.14
33414;BME280;60055;41.884;12.534;2023-10-19T01:07:32;100409.94;;;19.99;65.73
33414;BME280;60055;41.884;12.534;2023-10-19T01:10:03;100421.25;;;20.03;65.93
33414;BME280;60055;41.884;12.534;2023-10-19T01:12:31;100409.56;;;20.04;66.54
33414;BME280;60055;41.884;12.534;2023-10-19T01:17:49;100390.41;;;20.08;65.87
33414;BME280;60055;41.884;12.534;2023-10-19T01:20:26;100382.78;;;20.04;65.70
33414;BME280;60055;41.884;12.534;2023-10-19T01:23:01;100385.69;;;20.01;66.01
33414;BME280;60055;41.884;12.534;2023-10-19T01:28:28;100378.50;;;19.90;66.85
33414;BME280;60055;41.884;12.534;2023-10-19T01:31:12;100369.47;;;19.91;67.11
33414;BME280;60055;41.884;12.534;2023-10-19T01:34:00;100371.81;;;19.84;67.97
33414;BME280;60055;41.884;12.534;2023-10-19T01:36:29;100362.78;;;19.85;67.62
33414;BME280;60055;41.884;12.534;2023-10-19T01:39:01;100358.41;;;19.84;67.88
33414;BME280;60055;41.884;12.534;2023-10-19T01:41:27;100354.75;;;19.85;67.98
33414;BME280;60055;41.884;12.534;2023-10-19T01:43:54;100355.47;;;19.99;67.78
33414;BME280;60055;41.884;12.534;2023-10-19T01:46:20;100356.69;;;20.06;67.53
33414;BME280;60055;41.884;12.534;2023-10-19T01:49:03;100354.97;;;20.05;67.43
33414;BME280;60055;41.884;12.534;2023-10-19T01:51:34;100366.53;;;20.05;67.44
33414;BME280;60055;41.884;12.534;2023-10-19T01:54:08;100349.59;;;20.05;68.05
33414;BME280;60055;41.884;12.534;2023-10-19T01:56:33;100350.47;;;20.05;67.85
33414;BME280;60055;41.884;12.534;2023-10-19T01:59:02;100350.09;;;19.99;67.96
33414;BME280;60055;41.884;12.534;2023-10-19T02:01:28;100320.53;;;19.89;68.78
33414;BME280;60055;41.884;12.534;2023-10-19T02:04:03;100319.66;;;19.88;68.82
33414;BME280;60055;41.884;12.534;2023-10-19T02:06:33;100305.56;;;19.75;68.98
33414;BME280;60055;41.884;12.534;2023-10-19T02:09:10;100325.53;;;19.82;68.34
33414;BME280;60055;41.884;12.534;2023-10-19T02:11:41;100314.44;;;19.87;68.48
33414;BME280;60055;41.884;12.534;2023-10-19T02:14:08;100294.44;;;19.91;68.27
33414;BME280;60055;41.884;12.534;2023-10-19T02:16:39;100304.81;;;19.84;67.95
33414;BME280;60055;41.884;12.534;2023-10-19T02:19:05;100305.06;;;19.93;67.59
33414;BME280;60055;41.884;12.534;2023-10-19T02:21:30;100311.13;;;19.95;67.03
33414;BME280;60055;41.884;12.534;2023-10-19T02:23:56;100316.00;;;20.01;66.96
33414;BME280;60055;41.884;12.534;2023-10-19T02:26:23;100309.66;;;20.02;66.74
33414;BME280;60055;41.884;12.534;2023-10-19T02:28:51;100297.38;;;19.99;67.01
33414;BME280;60055;41.884;12.534;2023-10-19T02:31:18;100302.97;;;20.07;66.72
33414;BME280;60055;41.884;12.534;2023-10-19T02:33:45;100300.28;;;20.07;66.11
33414;BME280;60055;41.884;12.534;2023-10-19T02:36:14;100300.03;;;20.10;66.61
33414;BME280;60055;41.884;12.534;2023-10-19T02:38:42;100296.84;;;20.16;66.88
33414;BME280;60055;41.884;12.534;2023-10-19T02:41:17;100326.56;;;20.13;67.93
33414;BME280;60055;41.884;12.534;2023-10-19T02:43:43;100312.19;;;20.14;67.65
33414;BME280;60055;41.884;12.534;2023-10-19T02:46:14;100293.56;;;20.13;67.45
33414;BME280;60055;41.884;12.534;2023-10-19T02:48:42;100287.94;;;20.16;67.03
33414;BME280;60055;41.884;12.534;2023-10-19T02:51:13;100289.91;;;20.14;67.05
33414;BME280;60055;41.884;12.534;2023-10-19T02:53:41;100284.91;;;20.09;66.69
33414;BME280;60055;41.884;12.534;2023-10-19T02:56:15;100276.38;;;20.04;65.57
33414;BME280;60055;41.884;12.534;2023-10-19T02:58:46;100278.97;;;19.95;65.64
33414;BME280;60055;41.884;12.534;2023-10-19T03:01:20;100269.00;;;19.85;65.75
33414;BME280;60055;41.884;12.534;2023-10-19T03:03:54;100272.03;;;19.92;65.31
33414;BME280;60055;41.884;12.534;2023-10-19T03:06:21;100257.06;;;19.89;65.01
33414;BME280;60055;41.884;12.534;2023-10-19T03:08:48;100259.75;;;19.89;65.05
33414;BME280;60055;41.884;12.534;2023-10-19T03:11:17;100239.16;;;19.90;64.63
33414;BME280;60055;41.884;12.534;2023-10-19T03:13:42;100235.63;;;19.89;64.68
33414;BME280;60055;41.884;12.534;2023-10-19T03:16:09;100236.22;;;19.93;64.65
33414;BME280;60055;41.884;12.534;2023-10-19T03:18:35;100235.38;;;19.93;64.73
33414;BME280;60055;41.884;12.534;2023-10-19T03:21:02;100219.41;;;19.91;64.74
33414;BME280;60055;41.884;12.534;2023-10-19T03:23:27;100219.16;;;19.94;65.28
33414;BME280;60055;41.884;12.534;2023-10-19T03:25:56;100221.19;;;20.02;64.94
33414;BME280;60055;41.884;12.534;2023-10-19T03:28:40;100204.25;;;20.01;65.37
33414;BME280;60055;41.884;12.534;2023-10-19T03:31:06;100214.50;;;20.07;65.87
33414;BME280;60055;41.884;12.534;2023-10-19T03:33:33;100212.53;;;20.09;66.17
33414;BME280;60055;41.884;12.534;2023-10-19T03:36:01;100216.53;;;20.15;66.62
33414;BME280;60055;41.884;12.534;2023-10-19T03:38:28;100205.41;;;20.19;67.21
33414;BME280;60055;41.884;12.534;2023-10-19T03:40:57;100213.47;;;20.19;67.04
33414;BME280;60055;41.884;12.534;2023-10-19T03:43:31;100215.78;;;20.24;68.19
33414;BME280;60055;41.884;12.534;2023-10-19T03:45:57;100213.56;;;20.29;68.27
33414;BME280;60055;41.884;12.534;2023-10-19T03:48:24;100212.22;;;20.34;67.85
33414;BME280;60055;41.884;12.534;2023-10-19T03:50:55;100186.81;;;20.38;68.13
33414;BME280;60055;41.884;12.534;2023-10-19T03:53:22;100174.56;;;20.25;69.11
33414;BME280;60055;41.884;12.534;2023-10-19T03:55:48;100172.50;;;20.28;68.86
33414;BME280;60055;41.884;12.534;2023-10-19T03:58:16;100182.56;;;20.36;69.81
33414;BME280;60055;41.884;12.534;2023-10-19T04:00:41;100173.72;;;20.45;69.83
33414;BME280;60055;41.884;12.534;2023-10-19T04:03:07;100173.34;;;20.50;70.19
33414;BME280;60055;41.884;12.534;2023-10-19T04:05:32;100165.34;;;20.59;69.71
33414;BME280;60055;41.884;12.534;2023-10-19T04:08:05;100152.84;;;20.69;69.95
33414;BME280;60055;41.884;12.534;2023-10-19T04:10:39;100152.72;;;20.71;70.21
33414;BME280;60055;41.884;12.534;2023-10-19T04:13:05;100175.47;;;20.76;70.37
33414;BME280;60055;41.884;12.534;2023-10-19T04:15:35;100166.56;;;20.76;70.31
33414;BME280;60055;41.884;12.534;2023-10-19T04:18:02;100162.66;;;20.80;69.03
33414;BME280;60055;41.884;12.534;2023-10-19T04:20:33;100153.44;;;20.73;68.68
33414;BME280;60055;41.884;12.534;2023-10-19T04:23:23;100149.31;;;20.69;69.03
33414;BME280;60055;41.884;12.534;2023-10-19T04:25:53;100143.34;;;20.65;69.03
33414;BME280;60055;41.884;12.534;2023-10-19T04:28:22;100150.13;;;20.60;68.38
33414;BME280;60055;41.884;12.534;2023-10-19T04:30:56;100153.44;;;20.52;67.76
33414;BME280;60055;41.884;12.534;2023-10-19T04:33:25;100155.28;;;20.52;67.50
33414;BME280;60055;41.884;12.534;2023-10-19T04:35:53;100153.88;;;20.48;68.06
33414;BME280;60055;41.884;12.534;2023-10-19T04:38:22;100145.94;;;20.46;68.50
33414;BME280;60055;41.884;12.534;2023-10-19T04:40:47;100145.94;;;20.46;68.95
33414;BME280;60055;41.884;12.534;2023-10-19T04:43:13;100142.53;;;20.65;70.75
33414;BME280;60055;41.884;12.534;2023-10-19T04:45:41;100135.63;;;20.72;70.38
33414;BME280;60055;41.884;12.534;2023-10-19T04:48:07;100133.78;;;20.72;70.61
33414;BME280;60055;41.884;12.534;2023-10-19T04:50:32;100129.91;;;20.86;70.29
33414;BME280;60055;41.884;12.534;2023-10-19T04:52:57;100135.31;;;20.96;71.02
33414;BME280;60055;41.884;12.534;2023-10-19T04:55:24;100137.59;;;21.00;70.79
33414;BME280;60055;41.884;12.534;2023-10-19T04:57:49;100134.63;;;21.03;70.78
33414;BME280;60055;41.884;12.534;2023-10-19T05:00:15;100130.19;;;21.13;71.19
33414;BME280;60055;41.884;12.534;2023-10-19T05:02:41;100122.03;;;21.24;71.54
33414;BME280;60055;41.884;12.534;2023-10-19T05:05:06;100121.88;;;21.26;71.66
33414;BME280;60055;41.884;12.534;2023-10-19T05:07:32;100116.78;;;21.23;71.62
33414;BME280;60055;41.884;12.534;2023-10-19T05:09:58;100109.00;;;21.29;71.39
33414;BME280;60055;41.884;12.534;2023-10-19T05:12:24;100104.50;;;21.30;71.33
33414;BME280;60055;41.884;12.534;2023-10-19T05:14:50;100109.88;;;21.39;71.14
33414;BME280;60055;41.884;12.534;2023-10-19T05:17:16;100110.59;;;21.42;70.67
33414;BME280;60055;41.884;12.534;2023-10-19T05:19:41;100108.63;;;21.44;70.67
33414;BME280;60055;41.884;12.534;2023-10-19T05:22:08;100110.16;;;21.46;70.91
33414;BME280;60055;41.884;12.534;2023-10-19T05:24:35;100109.47;;;21.44;71.47
33414;BME280;60055;41.884;12.534;2023-10-19T05:27:01;100108.22;;;21.48;71.61
33414;BME280;60055;41.884;12.534;2023-10-19T05:29:26;100109.34;;;21.46;71.87
33414;BME280;60055;41.884;12.534;2023-10-19T05:31:53;100115.53;;;21.46;71.23
33414;BME280;60055;41.884;12.534;2023-10-19T05:34:21;100104.38;;;21.51;71.18
33414;BME280;60055;41.884;12.534;2023-10-19T05:36:48;100113.44;;;21.50;71.28
33414;BME280;60055;41.884;12.534;2023-10-19T05:39:17;100108.78;;;21.52;71.40
33414;BME280;60055;41.884;12.534;2023-10-19T05:41:43;100107.66;;;21.54;71.72
33414;BME280;60055;41.884;12.534;2023-10-19T05:44:09;100106.78;;;21.54;71.55
33414;BME280;60055;41.884;12.534;2023-10-19T05:46:34;100102.72;;;21.59;71.31
33414;BME280;60055;41.884;12.534;2023-10-19T05:48:59;100111.34;;;21.63;71.16
33414;BME280;60055;41.884;12.534;2023-10-19T05:51:29;100097.19;;;21.61;71.65
33414;BME280;60055;41.884;12.534;2023-10-19T05:53:54;100117.13;;;21.68;71.54
33414;BME280;60055;41.884;12.534;2023-10-19T05:56:27;100112.31;;;21.71;71.48
33414;BME280;60055;41.884;12.534;2023-10-19T05:58:52;100109.50;;;21.73;71.68
33414;BME280;60055;41.884;12.534;2023-10-19T06:01:19;100107.66;;;21.73;71.91
33414;BME280;60055;41.884;12.534;2023-10-19T06:03:45;100103.69;;;21.77;71.96
33414;BME280;60055;41.884;12.534;2023-10-19T06:06:11;100105.41;;;21.78;72.52
33414;BME280;60055;41.884;12.534;2023-10-19T06:08:36;100096.47;;;21.87;72.27
33414;BME280;60055;41.884;12.534;2023-10-19T06:11:02;100116.06;;;21.89;72.08
33414;BME280;60055;41.884;12.534;2023-10-19T06:13:28;100106.25;;;21.98;71.97
33414;BME280;60055;41.884;12.534;2023-10-19T06:15:55;100117.47;;;22.03;70.95
33414;BME280;60055;41.884;12.534;2023-10-19T06:18:20;100111.22;;;22.03;71.14
33414;BME280;60055;41.884;12.534;2023-10-19T06:20:46;100122.41;;;21.98;71.45
33414;BME280;60055;41.884;12.534;2023-10-19T06:23:12;100114.22;;;22.00;71.98
33414;BME280;60055;41.884;12.534;2023-10-19T06:25:38;100111.63;;;22.08;72.38
33414;BME280;60055;41.884;12.534;2023-10-19T06:28:04;100111.22;;;22.12;71.71
33414;BME280;60055;41.884;12.534;2023-10-19T06:30:31;100108.38;;;22.14;71.94
33414;BME280;60055;41.884;12.534;2023-10-19T06:32:58;100119.69;;;22.17;72.09
33414;BME280;60055;41.884;12.534;2023-10-19T06:35:26;100115.03;;;22.19;71.82
33414;BME280;60055;41.884;12.534;2023-10-19T06:37:53;100124.06;;;22.18;72.16
33414;BME280;60055;41.884;12.534;2023-10-19T06:40:20;100116.72;;;22.20;71.83
33414;BME280;60055;41.884;12.534;2023-10-19T06:42:47;100123.38;;;22.26;71.73
33414;BME280;60055;41.884;12.534;2023-10-19T06:45:14;100124.06;;;22.28;72.12
33414;BME280;60055;41.884;12.534;2023-10-19T06:47:43;100125.06;;;22.36;72.46
33414;BME280;60055;41.884;12.534;2023-10-19T06:50:10;100132.22;;;22.55;71.87
33414;BME280;60055;41.884;12.534;2023-10-19T06:52:37;100133.19;;;22.64;71.76
33414;BME280;60055;41.884;12.534;2023-10-19T06:55:04;100136.75;;;22.74;70.67
33414;BME280;60055;41.884;12.534;2023-10-19T06:57:31;100140.38;;;22.82;70.46
33414;BME280;60055;41.884;12.534;2023-10-19T06:59:58;100135.50;;;22.96;69.90
33414;BME280;60055;41.884;12.534;2023-10-19T07:02:23;100142.09;;;23.11;69.93
33414;BME280;60055;41.884;12.534;2023-10-19T07:04:49;100139.91;;;23.24;69.75
33414;BME280;60055;41.884;12.534;2023-10-19T07:07:14;100137.56;;;23.38;69.00
33414;BME280;60055;41.884;12.534;2023-10-19T07:09:40;100148.00;;;23.51;68.40
33414;BME280;60055;41.884;12.534;2023-10-19T07:12:07;100137.63;;;23.74;67.22
33414;BME280;60055;41.884;12.534;2023-10-19T07:14:33;100152.81;;;23.92;66.88
33414;BME280;60055;41.884;12.534;2023-10-19T07:16:59;100153.09;;;24.07;66.73
33414;BME280;60055;41.884;12.534;2023-10-19T07:19:25;100150.03;;;23.84;66.91
33414;BME280;60055;41.884;12.534;2023-10-19T07:21:50;100164.50;;;23.83;67.17
33414;BME280;60055;41.884;12.534;2023-10-19T07:24:23;100161.81;;;24.01;66.86
33414;BME280;60055;41.884;12.534;2023-10-19T07:26:50;100167.38;;;24.17;66.17
33414;BME280;60055;41.884;12.534;2023-10-19T07:29:33;100161.19;;;24.42;65.55
33414;BME280;60055;41.884;12.534;2023-10-19T07:31:58;100166.84;;;24.57;65.37
33414;BME280;60055;41.884;12.534;2023-10-19T07:34:24;100167.78;;;24.66;65.28
33414;BME280;60055;41.884;12.534;2023-10-19T07:36:56;100173.50;;;24.88;64.26
33414;BME280;60055;41.884;12.534;2023-10-19T07:39:24;100189.19;;;24.67;64.88
33414;BME280;60055;41.884;12.534;2023-10-19T07:41:50;100182.78;;;24.42;65.29
33414;BME280;60055;41.884;12.534;2023-10-19T07:44:16;100183.72;;;24.33;65.45
33414;BME280;60055;41.884;12.534;2023-10-19T07:46:41;100189.03;;;24.43;65.73
33414;BME280;60055;41.884;12.534;2023-10-19T07:49:07;100194.97;;;24.47;65.29
33414;BME280;60055;41.884;12.534;2023-10-19T07:51:33;100190.84;;;24.60;64.54
33414;BME280;60055;41.884;12.534;2023-10-19T07:53:59;100195.09;;;24.63;64.93
33414;BME280;60055;41.884;12.534;2023-10-19T07:56:25;100196.47;;;24.67;64.00
33414;BME280;60055;41.884;12.534;2023-10-19T07:58:50;100194.88;;;24.82;63.52
33414;BME280;60055;41.884;12.534;2023-10-19T08:01:15;100188.78;;;24.80;63.19
33414;BME280;60055;41.884;12.534;2023-10-19T08:03:41;100184.28;;;25.14;62.46
33414;BME280;60055;41.884;12.534;2023-10-19T08:06:06;100189.19;;;25.11;62.23
33414;BME280;60055;41.884;12.534;2023-10-19T08:08:32;100195.91;;;25.40;61.34
33414;BME280;60055;41.884;12.534;2023-10-19T08:11:01;100198.59;;;25.49;61.35
33414;BME280;60055;41.884;12.534;2023-10-19T08:13:27;100199.06;;;24.94;62.45
33414;BME280;60055;41.884;12.534;2023-10-19T08:15:52;100192.38;;;24.63;63.61
33414;BME280;60055;41.884;12.534;2023-10-19T08:18:18;100189.47;;;24.82;63.47
33414;BME280;60055;41.884;12.534;2023-10-19T08:20:44;100192.63;;;24.77;63.38
33414;BME280;60055;41.884;12.534;2023-10-19T08:23:14;100190.19;;;25.10;62.87
33414;BME280;60055;41.884;12.534;2023-10-19T08:25:42;100196.22;;;25.04;63.39
33414;BME280;60055;41.884;12.534;2023-10-19T08:28:07;100187.19;;;24.87;63.40
33414;BME280;60055;41.884;12.534;2023-10-19T08:30:32;100194.38;;;24.61;64.32
33414;BME280;60055;41.884;12.534;2023-10-19T08:32:59;100195.84;;;24.73;64.25
33414;BME280;60055;41.884;12.534;2023-10-19T08:35:25;100194.44;;;24.69;64.52
33414;BME280;60055;41.884;12.534;2023-10-19T08:37:52;100195.97;;;24.89;63.99
33414;BME280;60055;41.884;12.534;2023-10-19T08:40:18;100202.03;;;24.91;64.23
33414;BME280;60055;41.884;12.534;2023-10-19T08:42:45;100191.50;;;25.06;63.15
33414;BME280;60055;41.884;12.534;2023-10-19T08:45:11;100192.53;;;25.47;62.88
33414;BME280;60055;41.884;12.534;2023-10-19T08:50:14;100194.47;;;25.62;62.21
33414;BME280;60055;41.884;12.534;2023-10-19T08:52:41;100181.94;;;25.19;63.19
33414;BME280;60055;41.884;12.534;2023-10-19T08:55:08;100178.25;;;24.95;64.36
33414;BME280;60055;41.884;12.534;2023-10-19T08:57:36;100176.06;;;24.90;64.39
33414;BME280;60055;41.884;12.534;2023-10-19T09:00:01;100175.56;;;24.95;63.88
33414;BME280;60055;41.884;12.534;2023-10-19T09:02:31;100175.94;;;25.33;62.98
33414;BME280;60055;41.884;12.534;2023-10-19T09:04:56;100172.31;;;25.17;62.67
33414;BME280;60055;41.884;12.534;2023-10-19T09:07:25;100179.41;;;25.18;63.21
33414;BME280;60055;41.884;12.534;2023-10-19T09:09:56;100183.06;;;25.42;61.93
33414;BME280;60055;41.884;12.534;2023-10-19T09:12:22;100180.34;;;25.42;62.21
33414;BME280;60055;41.884;12.534;2023-10-19T09:14:48;100172.34;;;25.67;61.76
33414;BME280;60055;41.884;12.534;2023-10-19T09:17:15;100184.50;;;25.55;61.71
33414;BME280;60055;41.884;12.534;2023-10-19T09:19:44;100182.66;;;25.63;61.64
33414;BME280;60055;41.884;12.534;2023-10-19T09:22:10;100175.00;;;25.51;62.33
33414;BME280;60055;41.884;12.534;2023-10-19T09:24:46;100178.16;;;25.38;62.63
33414;BME280;60055;41.884;12.534;2023-10-19T09:27:12;100171.38;;;25.34;62.72
33414;BME280;60055;41.884;12.534;2023-10-19T09:29:39;100176.25;;;25.30;62.66
33414;BME280;60055;41.884;12.534;2023-10-19T09:32:07;100165.91;;;25.18;63.37
33414;BME280;60055;41.884;12.534;2023-10-19T09:34:33;100176.38;;;25.21;62.83
33414;BME280;60055;41.884;12.534;2023-10-19T09:37:00;100171.03;;;25.37;62.73
33414;BME280;60055;41.884;12.534;2023-10-19T09:39:32;100175.75;;;25.77;61.77
33414;BME280;60055;41.884;12.534;2023-10-19T09:42:02;100167.31;;;25.88;60.63
33414;BME280;60055;41.884;12.534;2023-10-19T09:44:34;100169.38;;;26.10;59.81
33414;BME280;60055;41.884;12.534;2023-10-19T09:47:04;100160.59;;;25.92;59.85
33414;BME280;60055;41.884;12.534;2023-10-19T09:49:34;100165.66;;;25.95;60.45
33414;BME280;60055;41.884;12.534;2023-10-19T09:52:00;100158.88;;;25.99;60.20
33414;BME280;60055;41.884;12.534;2023-10-19T09:57:51;100137.22;;;25.91;59.78
33414;BME280;60055;41.884;12.534;2023-10-19T10:00:19;100146.69;;;25.87;60.12
33414;BME280;60055;41.884;12.534;2023-10-19T10:02:51;100135.66;;;25.72;61.18
33414;BME280;60055;41.884;12.534;2023-10-19T10:10:45;100109.16;;;25.68;61.42
33414;BME280;60055;41.884;12.534;2023-10-19T10:15:58;100123.81;;;25.65;61.97
33414;BME280;60055;41.884;12.534;2023-10-19T10:18:30;100097.44;;;25.59;61.69
33414;BME280;60055;41.884;12.534;2023-10-19T10:21:14;100087.66;;;25.66;61.71
33414;BME280;60055;41.884;12.534;2023-10-19T10:23:43;100088.84;;;25.64;61.79
33414;BME280;60055;41.884;12.534;2023-10-19T10:26:10;100084.81;;;25.68;62.05
33414;BME280;60055;41.884;12.534;2023-10-19T10:28:36;100080.06;;;25.62;62.43
33414;BME280;60055;41.884;12.534;2023-10-19T10:31:31;100088.84;;;25.64;62.66
33414;BME280;60055;41.884;12.534;2023-10-19T10:34:01;100077.34;;;25.70;62.46
33414;BME280;60055;41.884;12.534;2023-10-19T10:39:42;100078.69;;;25.66;62.62
33414;BME280;60055;41.884;12.534;2023-10-19T10:42:10;100080.06;;;25.86;62.46
33414;BME280;60055;41.884;12.534;2023-10-19T10:44:45;100070.94;;;25.87;62.38
33414;BME280;60055;41.884;12.534;2023-10-19T10:47:16;100071.44;;;25.82;63.23
33414;BME280;60055;41.884;12.534;2023-10-19T10:52:29;100046.28;;;25.82;62.68
33414;BME280;60055;41.884;12.534;2023-10-19T10:54:56;100041.50;;;26.00;62.43
33414;BME280;60055;41.884;12.534;2023-10-19T10:57:22;100042.72;;;25.98;61.80
33414;BME280;60055;41.884;12.534;2023-10-19T11:00:04;100046.91;;;26.00;62.20
33414;BME280;60055;41.884;12.534;2023-10-19T11:02:32;100033.41;;;25.92;62.76
33414;BME280;60055;41.884;12.534;2023-10-19T11:04:58;100040.00;;;25.81;63.06
33414;BME280;60055;41.884;12.534;2023-10-19T11:07:23;100040.50;;;25.61;62.73
33414;BME280;60055;41.884;12.534;2023-10-19T11:09:49;100043.00;;;25.46;63.87
33414;BME280;60055;41.884;12.534;2023-10-19T11:12:15;100027.44;;;25.40;64.68
33414;BME280;60055;41.884;12.534;2023-10-19T11:14:56;100022.34;;;25.29;65.33
33414;BME280;60055;41.884;12.534;2023-10-19T11:17:25;100021.13;;;25.15;65.54
33414;BME280;60055;41.884;12.534;2023-10-19T11:19:59;100023.50;;;25.18;65.63
33414;BME280;60055;41.884;12.534;2023-10-19T11:22:27;100024.16;;;25.12;65.72
33414;BME280;60055;41.884;12.534;2023-10-19T11:24:53;100015.41;;;25.10;66.73
33414;BME280;60055;41.884;12.534;2023-10-19T11:27:26;100006.25;;;25.11;66.64
33414;BME280;60055;41.884;12.534;2023-10-19T11:29:58;100004.59;;;25.18;65.75
33414;BME280;60055;41.884;12.534;2023-10-19T11:32:25;99991.78;;;25.28;65.76
33414;BME280;60055;41.884;12.534;2023-10-19T11:34:56;99993.97;;;25.33;65.70
33414;BME280;60055;41.884;12.534;2023-10-19T11:37:22;99991.94;;;25.27;66.07
33414;BME280;60055;41.884;12.534;2023-10-19T11:39:48;99996.34;;;25.28;66.16
33414;BME280;60055;41.884;12.534;2023-10-19T11:42:15;99986.38;;;25.36;65.79
33414;BME280;60055;41.884;12.534;2023-10-19T11:44:41;99983.69;;;25.45;65.49
33414;BME280;60055;41.884;12.534;2023-10-19T11:47:06;99978.63;;;25.33;65.85
33414;BME280;60055;41.884;12.534;2023-10-19T11:49:31;99974.22;;;25.24;66.80
33414;BME280;60055;41.884;12.534;2023-10-19T11:51:57;99975.22;;;25.31;66.62
33414;BME280;60055;41.884;12.534;2023-10-19T11:54:23;99970.50;;;25.33;66.27
33414;BME280;60055;41.884;12.534;2023-10-19T11:56:48;99972.84;;;25.28;66.16
33414;BME280;60055;41.884;12.534;2023-10-19T11:59:14;99968.81;;;25.24;66.73
33414;BME280;60055;41.884;12.534;2023-10-19T12:01:41;99964.41;;;25.23;66.70
33414;BME280;60055;41.884;12.534;2023-10-19T12:04:07;99971.84;;;25.29;66.35
33414;BME280;60055;41.884;12.534;2023-10-19T12:06:34;99970.50;;;25.33;65.14
33414;BME280;60055;41.884;12.534;2023-10-19T12:09:00;99969.34;;;25.28;65.09
33414;BME280;60055;41.884;12.534;2023-10-19T12:11:36;99973.88;;;25.27;65.00
33414;BME280;60055;41.884;12.534;2023-10-19T12:14:01;99978.44;;;25.27;64.49
33414;BME280;60055;41.884;12.534;2023-10-19T12:16:29;99983.72;;;25.53;63.82
33414;BME280;60055;41.884;12.534;2023-10-19T12:18:54;99986.22;;;25.46;63.87
33414;BME280;60055;41.884;12.534;2023-10-19T12:21:20;99988.28;;;25.52;63.80
33414;BME280;60055;41.884;12.534;2023-10-19T12:23:52;99984.38;;;25.47;64.09
33414;BME280;60055;41.884;12.534;2023-10-19T12:26:20;100000.25;;;25.33;65.16
33414;BME280;60055;41.884;12.534;2023-10-19T12:28:45;100000.28;;;25.58;64.01
33414;BME280;60055;41.884;12.534;2023-10-19T12:31:13;99990.81;;;25.70;64.08
33414;BME280;60055;41.884;12.534;2023-10-19T12:33:38;99989.81;;;25.71;64.72
33414;BME280;60055;41.884;12.534;2023-10-19T12:36:05;99985.38;;;25.94;63.52
33414;BME280;60055;41.884;12.534;2023-10-19T12:38:46;99991.78;;;26.17;62.56
33414;BME280;60055;41.884;12.534;2023-10-19T12:41:11;99979.97;;;26.18;61.72
33414;BME280;60055;41.884;12.534;2023-10-19T12:43:36;99986.53;;;26.32;61.39
33414;BME280;60055;41.884;12.534;2023-10-19T12:46:02;99979.97;;;26.18;61.11
33414;BME280;60055;41.884;12.534;2023-10-19T12:48:27;99979.63;;;25.97;61.08
33414;BME280;60055;41.884;12.534;2023-10-19T12:50:59;99983.50;;;26.03;61.38
33414;BME280;60055;41.884;12.534;2023-10-19T12:53:24;99994.66;;;26.08;61.50
33414;BME280;60055;41.884;12.534;2023-10-19T12:55:50;99991.09;;;26.15;61.01
33414;BME280;60055;41.884;12.534;2023-10-19T12:58:17;99992.28;;;26.13;61.09
33414;BME280;60055;41.884;12.534;2023-10-19T13:00:45;99988.41;;;25.99;61.88
33414;BME280;60055;41.884;12.534;2023-10-19T13:03:12;99992.81;;;26.00;61.65
33414;BME280;60055;41.884;12.534;2023-10-19T13:05:40;99985.22;;;25.87;62.36
33414;BME280;60055;41.884;12.534;2023-10-19T13:08:12;99985.38;;;25.86;62.07
33414;BME280;60055;41.884;12.534;2023-10-19T13:10:46;99977.47;;;25.84;62.40
33414;BME280;60055;41.884;12.534;2023-10-19T13:13:13;99981.66;;;25.79;63.06